Time;durP1;ratioP1;P1;durP2;ratioP2;P2;SDS_P1;SDS_P2;PMS_P1;PMS_P2;Temp;Humidity;BMP_temperature;BMP_pressure;BME280_temperature;BME280_humidity;BME280_pressure;Samples;Min_cycle;Max_cycle;Signal;HPM_P1;HPM_P2
2022/07/17 00:00:52;;;;;;;7.60;3.72;;;;;;;;;;4993710;28;20027;-69
2022/07/17 00:03:19;;;;;;;5.40;3.50;;;;;;;;;;4993150;28;20053;-69
2022/07/17 00:05:45;;;;;;;7.78;3.45;;;;;;;;;;4993797;28;20084;-69
2022/07/17 00:08:11;;;;;;;5.20;3.70;;;;;;;;;;4993769;28;20026;-69
2022/07/17 00:10:39;;;;;;;6.25;3.50;;;;;;;;;;4994168;28;20176;-69
2022/07/17 00:13:05;;;;;;;7.72;3.55;;;;;;;;;;4994288;28;20033;-69
2022/07/17 00:15:31;;;;;;;7.35;3.67;;;;;;;;;;4993750;28;20026;-69
2022/07/17 00:17:58;;;;;;;5.75;3.28;;;;;;;;;;4993687;28;20053;-69
2022/07/17 00:20:25;;;;;;;7.72;3.42;;;;;;;;;;4993634;28;20030;-69
2022/07/17 00:22:55;;;;;;;8.68;3.63;;;;;;;;;;4993868;28;20105;-69
2022/07/17 00:25:21;;;;;;;8.52;3.17;;;;;;;;;;4994674;28;20030;-69
2022/07/17 00:27:47;;;;;;;8.10;3.45;;;;;;;;;;4994133;28;20035;-69
2022/07/17 00:30:14;;;;;;;5.25;3.38;;;;;;;;;;4993735;28;20022;-70
2022/07/17 00:32:40;;;;;;;5.60;3.47;;;;;;;;;;4994049;28;20027;-69
2022/07/17 00:35:07;;;;;;;5.95;3.42;;;;;;;;;;4976065;28;20396;-69
2022/07/17 00:37:38;;;;;;;7.05;3.25;;;;;;;;;;4993540;28;20026;-69
2022/07/17 00:40:04;;;;;;;6.40;3.38;;;;;;;;;;4993791;28;20106;-69
2022/07/17 00:42:30;;;;;;;7.18;3.25;;;;;;;;;;4993994;28;20027;-69
2022/07/17 00:44:56;;;;;;;5.72;3.28;;;;;;;;;;4993752;28;20102;-69
2022/07/17 00:47:23;;;;;;;10.25;4.63;;;;;;;;;;4993412;28;20543;-69
2022/07/17 00:49:49;;;;;;;5.07;3.17;;;;;;;;;;4993304;28;20073;-69
2022/07/17 00:52:16;;;;;;;5.20;3.35;;;;;;;;;;4993648;28;20028;-68
2022/07/17 00:54:43;;;;;;;5.80;3.50;;;;;;;;;;4993346;28;20535;-69
2022/07/17 00:57:13;;;;;;;7.28;3.60;;;;;;;;;;4993324;28;20101;-69
2022/07/17 00:59:39;;;;;;;6.38;3.30;;;;;;;;;;4993434;28;20030;-69
2022/07/17 01:02:07;;;;;;;5.55;3.03;;;;;;;;;;4993296;28;20029;-69
2022/07/17 01:04:33;;;;;;;5.68;3.03;;;;;;;;;;4992846;28;20050;-70
2022/07/17 01:07:00;;;;;;;10.18;3.50;;;;;;;;;;4993488;28;20429;-69
2022/07/17 01:09:27;;;;;;;6.00;3.20;;;;;;;;;;4993146;28;20054;-69
2022/07/17 01:11:53;;;;;;;7.82;3.97;;;;;;;;;;4993224;28;20389;-69
2022/07/17 01:14:19;;;;;;;5.80;3.35;;;;;;;;;;4993149;28;20023;-69
2022/07/17 01:16:46;;;;;;;6.28;3.58;;;;;;;;;;4995964;28;20025;-69
2022/07/17 01:19:12;;;;;;;5.43;3.17;;;;;;;;;;4997188;28;20077;-69
2022/07/17 01:21:39;;;;;;;11.38;3.63;;;;;;;;;;4996577;28;20022;-69
2022/07/17 01:24:06;;;;;;;6.18;3.88;;;;;;;;;;4996516;28;20105;-69
2022/07/17 01:26:32;;;;;;;6.18;3.55;;;;;;;;;;4979500;28;20024;-69
2022/07/17 01:28:58;;;;;;;5.03;3.70;;;;;;;;;;4996584;28;20027;-69
2022/07/17 01:31:24;;;;;;;9.77;4.00;;;;;;;;;;4996625;28;20358;-70
2022/07/17 01:33:50;;;;;;;17.65;4.15;;;;;;;;;;4996307;28;20026;-69
2022/07/17 01:36:16;;;;;;;5.60;3.70;;;;;;;;;;4996301;28;20027;-69
2022/07/17 01:38:42;;;;;;;4.32;3.30;;;;;;;;;;4996549;28;20022;-69
2022/07/17 01:41:08;;;;;;;7.15;3.83;;;;;;;;;;4996422;28;20027;-69
2022/07/17 01:43:34;;;;;;;6.15;3.40;;;;;;;;;;4996181;28;20065;-69
2022/07/17 01:46:00;;;;;;;6.85;3.90;;;;;;;;;;4996377;28;20023;-69
2022/07/17 01:48:27;;;;;;;4.45;3.42;;;;;;;;;;4996034;28;20036;-69
2022/07/17 01:50:53;;;;;;;7.38;3.60;;;;;;;;;;4995978;28;20069;-69
2022/07/17 01:53:19;;;;;;;6.88;4.18;;;;;;;;;;4996277;28;20109;-69
2022/07/17 01:55:45;;;;;;;6.78;3.92;;;;;;;;;;4995968;28;20104;-69
2022/07/17 01:58:12;;;;;;;7.15;4.07;;;;;;;;;;4995844;28;20033;-69
2022/07/17 02:00:38;;;;;;;5.75;3.47;;;;;;;;;;4995842;28;20030;-69
2022/07/17 02:03:05;;;;;;;6.72;3.63;;;;;;;;;;4978221;28;20404;-69
2022/07/17 02:05:31;;;;;;;7.47;3.65;;;;;;;;;;4995777;28;20057;-69
2022/07/17 02:07:57;;;;;;;8.43;3.88;;;;;;;;;;4996277;28;20034;-69
2022/07/17 02:10:23;;;;;;;4.72;3.22;;;;;;;;;;4978389;28;20031;-69
2022/07/17 02:12:49;;;;;;;5.20;2.92;;;;;;;;;;4996182;28;20058;-69
2022/07/17 02:15:15;;;;;;;5.57;3.40;;;;;;;;;;4995865;28;20030;-69
2022/07/17 02:17:42;;;;;;;6.00;3.47;;;;;;;;;;4995542;28;20022;-69
2022/07/17 02:20:08;;;;;;;13.88;4.07;;;;;;;;;;4995486;28;20026;-69
2022/07/17 02:22:35;;;;;;;4.97;3.50;;;;;;;;;;4995723;28;20038;-68
2022/07/17 02:25:01;;;;;;;5.68;3.42;;;;;;;;;;4995393;28;20022;-69
2022/07/17 02:27:27;;;;;;;5.25;3.65;;;;;;;;;;4995599;28;20109;-69
2022/07/17 02:29:53;;;;;;;9.73;3.80;;;;;;;;;;4995188;28;20084;-69
2022/07/17 02:32:19;;;;;;;6.20;3.42;;;;;;;;;;4995259;28;20026;-69
2022/07/17 02:34:45;;;;;;;7.75;3.50;;;;;;;;;;4995171;28;20022;-69
2022/07/17 02:37:11;;;;;;;5.25;3.60;;;;;;;;;;4995150;28;20027;-69
2022/07/17 02:39:51;;;;;;;6.97;3.47;;;;;;;;;;4995120;28;20488;-69
2022/07/17 02:42:17;;;;;;;6.47;4.07;;;;;;;;;;4977359;28;20034;-69
2022/07/17 02:44:43;;;;;;;5.82;3.75;;;;;;;;;;4994984;28;20027;-69
2022/07/17 02:47:09;;;;;;;4.88;3.40;;;;;;;;;;4995172;28;20092;-69
2022/07/17 02:49:35;;;;;;;5.95;3.75;;;;;;;;;;4994861;28;20543;-69
2022/07/17 02:52:01;;;;;;;5.05;3.55;;;;;;;;;;4994889;28;20022;-69
2022/07/17 02:54:27;;;;;;;7.40;3.63;;;;;;;;;;4994844;28;20455;-69
2022/07/17 02:56:53;;;;;;;6.72;3.95;;;;;;;;;;4994716;28;20026;-69
2022/07/17 02:59:19;;;;;;;7.53;3.75;;;;;;;;;;4994701;28;20076;-69
2022/07/17 03:01:45;;;;;;;5.25;3.65;;;;;;;;;;4994666;28;20080;-69
2022/07/17 03:04:11;;;;;;;5.68;3.60;;;;;;;;;;4976764;28;20053;-69
2022/07/17 03:06:37;;;;;;;4.88;3.30;;;;;;;;;;4994588;28;20037;-69
2022/07/17 03:09:03;;;;;;;5.38;3.63;;;;;;;;;;4994763;28;20049;-69
2022/07/17 03:11:29;;;;;;;6.70;4.30;;;;;;;;;;4977077;28;20548;-69
2022/07/17 03:13:55;;;;;;;7.13;3.83;;;;;;;;;;4994432;28;20105;-69
2022/07/17 03:16:21;;;;;;;6.82;3.67;;;;;;;;;;4994726;28;20032;-69
2022/07/17 03:18:47;;;;;;;5.28;3.20;;;;;;;;;;4994390;28;20392;-69
2022/07/17 03:21:13;;;;;;;7.22;3.40;;;;;;;;;;4994604;28;20034;-69
2022/07/17 03:23:39;;;;;;;5.63;3.40;;;;;;;;;;4976882;28;20030;-69
2022/07/17 03:26:05;;;;;;;6.20;3.90;;;;;;;;;;4994818;28;20026;-69
2022/07/17 03:28:31;;;;;;;7.90;4.10;;;;;;;;;;4994775;28;20026;-69
2022/07/17 03:30:57;;;;;;;7.03;3.58;;;;;;;;;;4994092;28;20040;-69
2022/07/17 03:33:23;;;;;;;6.55;3.60;;;;;;;;;;4994459;28;20102;-69
2022/07/17 03:35:49;;;;;;;7.68;3.85;;;;;;;;;;4994126;28;20439;-69
2022/07/17 03:38:15;;;;;;;5.60;3.65;;;;;;;;;;4993541;28;20045;-69
2022/07/17 03:40:41;;;;;;;5.70;3.47;;;;;;;;;;4994067;28;20076;-69
2022/07/17 03:43:07;;;;;;;8.88;3.80;;;;;;;;;;4976601;28;20121;-68
2022/07/17 03:45:33;;;;;;;6.70;4.00;;;;;;;;;;4994041;28;20497;-69
2022/07/17 03:47:59;;;;;;;5.00;3.38;;;;;;;;;;4993985;28;20027;-69
2022/07/17 03:50:25;;;;;;;5.97;4.00;;;;;;;;;;4994164;28;20153;-69
2022/07/17 03:52:51;;;;;;;7.78;3.67;;;;;;;;;;4993905;28;20495;-69
2022/07/17 03:55:17;;;;;;;8.20;3.90;;;;;;;;;;4993859;28;20041;-69
2022/07/17 03:57:43;;;;;;;6.43;3.92;;;;;;;;;;4994189;28;20022;-69
2022/07/17 04:00:09;;;;;;;7.60;4.00;;;;;;;;;;4993772;28;20377;-69
2022/07/17 04:02:36;;;;;;;8.13;3.95;;;;;;;;;;4993646;28;20050;-69
2022/07/17 04:05:02;;;;;;;5.68;3.50;;;;;;;;;;4994125;28;20096;-68
2022/07/17 04:07:28;;;;;;;8.27;3.90;;;;;;;;;;4994049;28;20034;-69
2022/07/17 04:09:55;;;;;;;6.40;4.00;;;;;;;;;;4993942;28;20617;-69
2022/07/17 04:12:21;;;;;;;4.95;3.33;;;;;;;;;;4993750;28;20101;-69
2022/07/17 04:14:48;;;;;;;6.05;3.58;;;;;;;;;;4993931;28;20030;-69
2022/07/17 04:17:14;;;;;;;7.70;3.75;;;;;;;;;;4993957;28;20022;-69
2022/07/17 04:19:40;;;;;;;6.65;3.45;;;;;;;;;;4993666;28;20084;-68
2022/07/17 04:22:06;;;;;;;6.80;3.55;;;;;;;;;;4993609;28;20029;-69
2022/07/17 04:24:32;;;;;;;7.68;3.92;;;;;;;;;;4993904;28;20034;-69
2022/07/17 04:26:58;;;;;;;5.82;3.22;;;;;;;;;;4994082;28;20492;-69
2022/07/17 04:29:24;;;;;;;7.00;3.72;;;;;;;;;;4993537;28;20081;-69
2022/07/17 04:31:51;;;;;;;6.85;3.70;;;;;;;;;;4993876;28;20018;-69
2022/07/17 04:34:17;;;;;;;6.15;3.28;;;;;;;;;;4993791;28;20491;-69
2022/07/17 04:36:43;;;;;;;7.72;3.55;;;;;;;;;;4993479;28;20027;-69
2022/07/17 04:39:09;;;;;;;8.15;3.33;;;;;;;;;;4993471;28;20030;-69
2022/07/17 04:41:35;;;;;;;7.65;3.85;;;;;;;;;;4993467;28;20018;-69
2022/07/17 04:44:01;;;;;;;5.75;3.40;;;;;;;;;;4993429;28;20026;-69
2022/07/17 04:46:27;;;;;;;9.35;4.25;;;;;;;;;;4993393;28;20023;-70
2022/07/17 04:48:53;;;;;;;6.75;3.28;;;;;;;;;;4993765;28;20027;-69
2022/07/17 04:51:19;;;;;;;6.78;3.60;;;;;;;;;;4997086;28;20392;-69
2022/07/17 04:53:45;;;;;;;6.25;3.35;;;;;;;;;;4997136;28;20027;-69
2022/07/17 04:56:11;;;;;;;5.75;3.05;;;;;;;;;;4997055;28;20026;-69
2022/07/17 04:58:37;;;;;;;5.22;3.35;;;;;;;;;;4996988;28;20093;-69
2022/07/17 05:01:03;;;;;;;7.55;3.40;;;;;;;;;;4996889;28;20507;-69
2022/07/17 05:03:29;;;;;;;5.90;3.45;;;;;;;;;;4996740;28;20125;-69
2022/07/17 05:05:55;;;;;;;6.68;3.33;;;;;;;;;;4997124;28;20461;-69
2022/07/17 05:08:21;;;;;;;6.70;3.35;;;;;;;;;;4996804;28;20034;-69
2022/07/17 05:10:47;;;;;;;4.10;3.10;;;;;;;;;;4996746;28;20027;-69
2022/07/17 05:13:13;;;;;;;6.25;2.78;;;;;;;;;;4997067;28;20018;-69
2022/07/17 05:15:39;;;;;;;7.60;3.30;;;;;;;;;;4979228;28;20034;-69
2022/07/17 05:18:05;;;;;;;9.23;3.55;;;;;;;;;;4996995;28;20097;-70
2022/07/17 05:20:31;;;;;;;4.47;3.05;;;;;;;;;;4996890;28;20038;-69
2022/07/17 05:22:57;;;;;;;8.75;3.28;;;;;;;;;;4996866;28;20033;-69
2022/07/17 05:25:24;;;;;;;4.22;2.70;;;;;;;;;;4996513;28;20488;-69
2022/07/17 05:27:50;;;;;;;5.20;3.00;;;;;;;;;;4997027;28;20081;-69
2022/07/17 05:30:16;;;;;;;8.43;3.25;;;;;;;;;;4996648;28;20080;-69
2022/07/17 05:32:42;;;;;;;6.10;3.00;;;;;;;;;;4996633;28;20022;-69
2022/07/17 05:35:08;;;;;;;4.90;3.03;;;;;;;;;;4996314;28;20030;-69
2022/07/17 05:37:34;;;;;;;6.43;3.40;;;;;;;;;;4996544;28;20153;-69
2022/07/17 05:40:00;;;;;;;5.88;3.00;;;;;;;;;;4996234;28;20485;-69
2022/07/17 05:42:26;;;;;;;4.78;3.00;;;;;;;;;;4996525;28;20026;-69
2022/07/17 05:44:52;;;;;;;6.10;3.05;;;;;;;;;;4996147;28;20539;-69
2022/07/17 05:47:18;;;;;;;5.03;2.85;;;;;;;;;;4996403;28;20030;-69
2022/07/17 05:49:44;;;;;;;6.65;3.10;;;;;;;;;;4996292;28;20031;-69
2022/07/17 05:52:10;;;;;;;3.58;2.60;;;;;;;;;;4996330;28;20085;-69
2022/07/17 05:54:36;;;;;;;6.43;3.05;;;;;;;;;;4996000;28;20033;-69
2022/07/17 05:57:02;;;;;;;7.00;2.90;;;;;;;;;;4995940;28;20026;-69
2022/07/17 05:59:28;;;;;;;5.60;2.67;;;;;;;;;;4995822;28;20056;-69
2022/07/17 06:01:54;;;;;;;5.03;2.80;;;;;;;;;;4995249;28;20101;-69
2022/07/17 06:04:20;;;;;;;5.38;2.70;;;;;;;;;;4995434;28;20488;-69
2022/07/17 06:06:46;;;;;;;4.18;2.60;;;;;;;;;;4995827;28;20038;-69
2022/07/17 06:09:12;;;;;;;5.32;2.88;;;;;;;;;;4995641;28;20501;-69
2022/07/17 06:11:38;;;;;;;4.43;2.40;;;;;;;;;;4995701;28;20054;-69
2022/07/17 06:14:04;;;;;;;4.38;2.65;;;;;;;;;;4978139;28;20400;-69
2022/07/17 06:16:31;;;;;;;5.65;2.80;;;;;;;;;;4995554;28;20052;-69
2022/07/17 06:18:57;;;;;;;4.95;2.65;;;;;;;;;;4995543;28;20023;-69
2022/07/17 06:21:23;;;;;;;3.58;2.33;;;;;;;;;;4995491;28;20026;-69
2022/07/17 06:23:49;;;;;;;4.38;2.25;;;;;;;;;;4995709;28;20034;-69
2022/07/17 06:26:15;;;;;;;5.45;2.38;;;;;;;;;;4995924;28;20026;-69
2022/07/17 06:28:41;;;;;;;5.13;2.67;;;;;;;;;;4995331;28;20042;-69
2022/07/17 06:31:07;;;;;;;3.83;2.40;;;;;;;;;;4995484;28;20026;-69
2022/07/17 06:33:33;;;;;;;9.95;2.40;;;;;;;;;;4995266;28;20495;-69
2022/07/17 06:35:59;;;;;;;13.95;2.60;;;;;;;;;;4977789;28;20046;-69
2022/07/17 06:38:25;;;;;;;4.25;2.40;;;;;;;;;;4995196;28;20026;-69
2022/07/17 06:40:51;;;;;;;3.90;2.30;;;;;;;;;;4995122;28;20057;-69
2022/07/17 06:43:17;;;;;;;7.28;2.40;;;;;;;;;;4995040;28;20043;-69
2022/07/17 06:45:43;;;;;;;3.53;2.30;;;;;;;;;;4995027;28;20030;-69
2022/07/17 06:48:09;;;;;;;4.85;2.53;;;;;;;;;;4995288;28;20037;-69
2022/07/17 06:50:35;;;;;;;5.00;2.35;;;;;;;;;;4994860;28;20373;-69
2022/07/17 06:53:01;;;;;;;3.67;2.20;;;;;;;;;;4994905;28;20034;-69
2022/07/17 06:55:28;;;;;;;3.63;2.35;;;;;;;;;;4995111;28;20027;-70
2022/07/17 06:57:54;;;;;;;4.22;2.47;;;;;;;;;;4994786;28;20022;-70
2022/07/17 07:00:20;;;;;;;5.57;2.30;;;;;;;;;;4994680;28;20036;-70
2022/07/17 07:02:46;;;;;;;4.75;2.28;;;;;;;;;;4994492;28;20497;-69
2022/07/17 07:05:12;;;;;;;2.70;1.73;;;;;;;;;;4994681;28;20393;-69
2022/07/17 07:07:38;;;;;;;2.35;1.90;;;;;;;;;;4994887;28;20484;-69
2022/07/17 07:10:04;;;;;;;3.95;1.90;;;;;;;;;;4994535;28;20029;-69
2022/07/17 07:12:30;;;;;;;3.25;2.10;;;;;;;;;;4993942;28;20050;-69
2022/07/17 07:14:56;;;;;;;4.10;2.03;;;;;;;;;;4994183;28;20019;-69
2022/07/17 07:17:22;;;;;;;2.78;2.17;;;;;;;;;;4994417;28;20029;-69
2022/07/17 07:19:48;;;;;;;2.50;2.20;;;;;;;;;;4994440;28;20033;-70
2022/07/17 07:22:15;;;;;;;4.75;2.20;;;;;;;;;;4994646;28;20037;-69
2022/07/17 07:24:42;;;;;;;5.75;2.40;;;;;;;;;;4994367;28;20396;-70
2022/07/17 07:27:08;;;;;;;6.30;2.30;;;;;;;;;;4994689;28;20037;-70
2022/07/17 07:29:34;;;;;;;3.78;2.38;;;;;;;;;;4994697;28;20030;-69
2022/07/17 07:32:00;;;;;;;3.67;2.40;;;;;;;;;;4976629;28;20469;-70
2022/07/17 07:34:26;;;;;;;5.57;2.17;;;;;;;;;;4976735;28;20362;-69
2022/07/17 07:36:52;;;;;;;8.05;2.22;;;;;;;;;;4994091;28;20053;-70
2022/07/17 07:39:18;;;;;;;3.97;2.20;;;;;;;;;;4994120;28;20434;-69
2022/07/17 07:41:44;;;;;;;3.13;2.03;;;;;;;;;;4994081;28;20058;-70
2022/07/17 07:44:10;;;;;;;4.50;1.92;;;;;;;;;;4994036;28;20029;-70
2022/07/17 07:46:37;;;;;;;3.03;1.92;;;;;;;;;;4994315;28;20105;-69
2022/07/17 07:49:03;;;;;;;3.83;2.30;;;;;;;;;;4994258;28;20018;-70
2022/07/17 07:51:29;;;;;;;6.25;2.25;;;;;;;;;;4976453;28;20034;-70
2022/07/17 07:53:55;;;;;;;4.07;2.15;;;;;;;;;;4993913;28;20054;-70
2022/07/17 07:56:21;;;;;;;3.15;2.05;;;;;;;;;;4993921;28;20022;-70
2022/07/17 07:58:47;;;;;;;4.63;2.13;;;;;;;;;;4993889;28;20022;-70
2022/07/17 08:01:13;;;;;;;5.47;2.30;;;;;;;;;;4993777;28;20053;-69
2022/07/17 08:03:39;;;;;;;6.35;2.00;;;;;;;;;;4993601;28;20492;-69
2022/07/17 08:06:05;;;;;;;6.30;2.40;;;;;;;;;;4994023;28;20037;-70
2022/07/17 08:08:31;;;;;;;5.15;2.45;;;;;;;;;;4993779;28;20105;-70
2022/07/17 08:10:57;;;;;;;3.10;2.20;;;;;;;;;;4993694;28;20105;-70
2022/07/17 08:13:23;;;;;;;3.33;2.00;;;;;;;;;;4993695;28;20023;-70
2022/07/17 08:15:49;;;;;;;2.78;2.00;;;;;;;;;;4993711;28;20026;-70
2022/07/17 08:18:15;;;;;;;5.35;1.77;;;;;;;;;;4976240;28;20117;-70
2022/07/17 08:20:42;;;;;;;2.80;2.00;;;;;;;;;;4993634;28;20026;-70
2022/07/17 08:23:08;;;;;;;6.32;2.20;;;;;;;;;;4993832;28;20440;-70
2022/07/17 08:25:35;;;;;;;3.88;2.13;;;;;;;;;;4996511;28;20030;-70
2022/07/17 08:28:01;;;;;;;3.47;2.10;;;;;;;;;;4998100;28;20026;-70
2022/07/17 08:30:27;;;;;;;3.78;2.10;;;;;;;;;;4997522;28;20396;-70
2022/07/17 08:32:53;;;;;;;3.13;2.20;;;;;;;;;;4997531;28;20473;-70
2022/07/17 08:35:19;;;;;;;5.55;2.00;;;;;;;;;;4997757;28;20054;-70
2022/07/17 08:37:54;;;;;;;3.67;2.10;;;;;;;;;;4997706;28;20042;-70
2022/07/17 08:40:22;;;;;;;2.20;2.00;;;;;;;;;;4979623;28;20033;-70
2022/07/17 08:42:48;;;;;;;4.70;2.22;;;;;;;;;;4997884;28;20034;-70
2022/07/17 08:45:15;;;;;;;3.58;2.15;;;;;;;;;;4997545;28;20053;-70
2022/07/17 08:47:41;;;;;;;7.30;2.22;;;;;;;;;;4997491;28;20026;-70
2022/07/17 08:50:08;;;;;;;3.28;2.00;;;;;;;;;;4997123;28;20054;-70
2022/07/17 08:52:36;;;;;;;2.42;2.03;;;;;;;;;;4997143;28;20018;-70
2022/07/17 08:55:02;;;;;;;3.22;2.10;;;;;;;;;;4997089;28;20061;-70
2022/07/17 08:57:28;;;;;;;4.30;2.15;;;;;;;;;;4997314;28;20373;-70
2022/07/17 08:59:54;;;;;;;3.55;2.08;;;;;;;;;;4996920;28;20117;-70
2022/07/17 09:02:20;;;;;;;3.58;2.33;;;;;;;;;;4996730;28;20030;-70
2022/07/17 09:04:55;;;;;;;4.25;2.22;;;;;;;;;;4996949;28;20476;-70
2022/07/17 09:07:21;;;;;;;4.32;2.28;;;;;;;;;;4997121;28;20029;-70
2022/07/17 09:09:51;;;;;;;5.93;2.30;;;;;;;;;;4997023;28;20037;-70
2022/07/17 09:12:17;;;;;;;3.83;2.13;;;;;;;;;;4996789;28;20030;-70
2022/07/17 09:14:44;;;;;;;3.95;2.10;;;;;;;;;;4996689;28;20027;-70
2022/07/17 09:17:11;;;;;;;6.97;2.10;;;;;;;;;;4997193;28;20026;-70
2022/07/17 09:19:38;;;;;;;6.90;2.33;;;;;;;;;;4996636;28;20030;-70
2022/07/17 09:22:12;;;;;;;3.33;2.22;;;;;;;;;;4996616;28;20068;-69
2022/07/17 09:24:42;;;;;;;4.07;2.50;;;;;;;;;;4978995;28;20507;-70
2022/07/17 09:27:08;;;;;;;3.78;2.10;;;;;;;;;;4997024;28;20057;-70
2022/07/17 09:29:34;;;;;;;3.45;2.50;;;;;;;;;;4996598;28;20034;-70
2022/07/17 09:32:00;;;;;;;4.55;2.40;;;;;;;;;;4996964;28;20381;-70
2022/07/17 09:34:26;;;;;;;4.45;2.55;;;;;;;;;;4996398;28;20054;-70
2022/07/17 09:36:59;;;;;;;5.13;2.20;;;;;;;;;;4995331;28;20018;-70
2022/07/17 09:39:34;;;;;;;4.40;2.10;;;;;;;;;;4996269;28;20033;-70
2022/07/17 09:42:00;;;;;;;3.85;2.10;;;;;;;;;;4996857;28;20354;-70
2022/07/17 09:44:26;;;;;;;2.55;2.13;;;;;;;;;;4996229;28;20085;-70
2022/07/17 09:46:52;;;;;;;3.25;2.33;;;;;;;;;;4996370;28;20054;-70
2022/07/17 09:49:18;;;;;;;7.32;2.17;;;;;;;;;;4996039;28;20026;-70
2022/07/17 09:51:45;;;;;;;4.60;2.50;;;;;;;;;;4996367;28;20081;-69
2022/07/17 09:54:11;;;;;;;6.90;2.40;;;;;;;;;;4996343;28;20142;-70
2022/07/17 09:56:38;;;;;;;4.43;2.10;;;;;;;;;;4995989;28;20102;-70
2022/07/17 09:59:06;;;;;;;5.10;2.33;;;;;;;;;;4996278;28;20031;-70
2022/07/17 10:01:33;;;;;;;3.35;2.28;;;;;;;;;;4995687;28;20080;-70
2022/07/17 10:03:59;;;;;;;4.63;2.13;;;;;;;;;;4995700;28;20054;-70
2022/07/17 10:06:26;;;;;;;7.80;2.20;;;;;;;;;;4995865;28;20030;-70
2022/07/17 10:08:53;;;;;;;4.03;2.35;;;;;;;;;;4995814;28;20058;-71
2022/07/17 10:11:21;;;;;;;4.68;2.20;;;;;;;;;;4995932;28;20037;-70
2022/07/17 10:13:48;;;;;;;7.63;2.30;;;;;;;;;;4995728;28;20247;-70
2022/07/17 10:16:14;;;;;;;3.03;2.10;;;;;;;;;;4995650;28;20018;-70
2022/07/17 10:18:44;;;;;;;3.75;2.30;;;;;;;;;;4995875;28;20037;-70
2022/07/17 10:21:14;;;;;;;3.95;2.25;;;;;;;;;;4995542;28;20030;-70
2022/07/17 10:23:41;;;;;;;4.25;1.90;;;;;;;;;;4995494;28;20511;-70
2022/07/17 10:26:07;;;;;;;6.97;2.45;;;;;;;;;;4995705;28;20034;-70
2022/07/17 10:28:46;;;;;;;6.65;2.05;;;;;;;;;;4995878;28;20034;-69
2022/07/17 10:31:29;;;;;;;3.97;2.00;;;;;;;;;;4995240;28;20034;-69
2022/07/17 10:33:59;;;;;;;4.90;2.35;;;;;;;;;;4995786;28;20026;-70
2022/07/17 10:36:24;;;;;;;;;;;;;;;;;;4996165;28;20030;-70
2022/07/17 10:38:52;;;;;;;2.83;2.00;;;;;;;;;;4995420;28;19906;-70
2022/07/17 10:41:20;;;;;;;2.97;1.80;;;;;;;;;;4995169;28;20089;-70
2022/07/17 10:43:49;;;;;;;4.13;1.90;;;;;;;;;;4995041;28;20433;-70
2022/07/17 10:46:15;;;;;;;5.20;1.80;;;;;;;;;;4995084;28;20392;-70
2022/07/17 10:48:41;;;;;;;5.13;2.00;;;;;;;;;;4994807;28;20058;-70
2022/07/17 10:51:07;;;;;;;3.28;2.00;;;;;;;;;;4994868;28;20030;-70
2022/07/17 10:53:33;;;;;;;4.25;2.40;;;;;;;;;;4995423;28;20031;-70
2022/07/17 10:56:03;;;;;;;4.88;1.98;;;;;;;;;;4994853;28;20026;-70
2022/07/17 10:58:44;;;;;;;4.25;1.92;;;;;;;;;;4994858;28;20098;-70
2022/07/17 11:01:12;;;;;;;2.20;1.40;;;;;;;;;;4994739;28;20034;-69
2022/07/17 11:03:47;;;;;;;2.65;1.70;;;;;;;;;;4994718;28;20456;-70
2022/07/17 11:06:16;;;;;;;3.58;1.70;;;;;;;;;;4994850;28;20100;-70
2022/07/17 11:09:01;;;;;;;3.25;1.95;;;;;;;;;;4994656;28;20023;-70
2022/07/17 11:11:43;;;;;;;3.88;1.60;;;;;;;;;;4995030;28;20045;-70
2022/07/17 11:14:09;;;;;;;3.47;2.03;;;;;;;;;;4994370;28;20029;-70
2022/07/17 11:16:35;;;;;;;2.75;1.60;;;;;;;;;;4994796;28;20033;-71
2022/07/17 11:19:01;;;;;;;3.42;1.60;;;;;;;;;;4994434;28;20416;-70
2022/07/17 11:21:28;;;;;;;3.38;1.85;;;;;;;;;;4994387;28;20062;-70
2022/07/17 11:23:55;;;;;;;4.82;1.77;;;;;;;;;;4994383;28;20030;-70
2022/07/17 11:26:21;;;;;;;3.05;1.70;;;;;;;;;;4994661;28;20030;-70
2022/07/17 11:28:48;;;;;;;3.33;1.67;;;;;;;;;;4994815;28;20057;-70
2022/07/17 11:31:25;;;;;;;2.15;1.75;;;;;;;;;;4994181;28;20099;-70
2022/07/17 11:33:54;;;;;;;2.00;1.40;;;;;;;;;;4994510;28;20077;-70
2022/07/17 11:36:31;;;;;;;2.50;1.48;;;;;;;;;;4994251;28;20022;-70
2022/07/17 11:38:58;;;;;;;3.63;1.42;;;;;;;;;;4994145;28;20018;-70
2022/07/17 11:41:31;;;;;;;3.38;1.50;;;;;;;;;;4994091;28;20436;-70
2022/07/17 11:43:57;;;;;;;1.50;1.40;;;;;;;;;;4994068;28;20034;-70
2022/07/17 11:46:24;;;;;;;5.00;1.88;;;;;;;;;;4994041;28;20030;-70
2022/07/17 11:48:50;;;;;;;3.95;1.60;;;;;;;;;;4994003;28;20034;-70
2022/07/17 11:51:18;;;;;;;6.70;2.00;;;;;;;;;;4993888;28;20384;-70
2022/07/17 11:53:44;;;;;;;3.60;1.90;;;;;;;;;;4993956;28;20022;-70
2022/07/17 11:56:19;;;;;;;1.92;1.38;;;;;;;;;;4993919;28;20035;-70
2022/07/17 11:58:47;;;;;;;2.08;1.40;;;;;;;;;;4993713;28;20022;-70
2022/07/17 12:01:13;;;;;;;3.75;1.40;;;;;;;;;;4993768;28;20036;-71
2022/07/17 12:03:39;;;;;;;2.58;1.50;;;;;;;;;;4993610;28;20046;-70
2022/07/17 12:06:06;;;;;;;3.45;1.67;;;;;;;;;;4993809;28;20031;-70
2022/07/17 12:08:32;;;;;;;2.42;1.70;;;;;;;;;;4994064;28;20081;-70
2022/07/17 12:11:01;;;;;;;1.98;1.45;;;;;;;;;;4993688;28;20068;-70
2022/07/17 12:13:54;;;;;;;2.00;1.40;;;;;;;;;;4994090;28;20094;-70
2022/07/17 12:16:23;;;;;;;3.80;1.73;;;;;;;;;;4989361;28;20261;-70
2022/07/17 12:19:00;;;;;;;2.45;1.65;;;;;;;;;;4994302;28;20023;-71
2022/07/17 12:21:27;;;;;;;3.88;1.50;;;;;;;;;;4993725;28;20026;-70
2022/07/17 12:24:03;;;;;;;4.57;1.70;;;;;;;;;;4993665;28;20477;-70
2022/07/17 12:26:29;;;;;;;4.65;1.50;;;;;;;;;;4993632;28;20105;-70
2022/07/17 12:28:55;;;;;;;3.05;1.48;;;;;;;;;;4994126;28;20026;-70
2022/07/17 12:31:23;;;;;;;5.15;1.60;;;;;;;;;;4993513;28;20109;-70
2022/07/17 12:33:51;;;;;;;2.42;1.60;;;;;;;;;;4994098;28;20023;-69
2022/07/17 12:36:17;;;;;;;2.78;1.40;;;;;;;;;;4993562;28;20031;-70
2022/07/17 12:38:43;;;;;;;1.60;1.50;;;;;;;;;;4993555;28;20026;-70
2022/07/17 12:41:09;;;;;;;3.33;1.50;;;;;;;;;;4993813;28;20034;-70
2022/07/17 12:43:35;;;;;;;9.32;1.55;;;;;;;;;;4993507;28;20077;-71
2022/07/17 12:46:01;;;;;;;3.35;1.50;;;;;;;;;;4993532;28;20037;-70
2022/07/17 12:48:27;;;;;;;2.13;1.58;;;;;;;;;;4993751;28;20026;-70
2022/07/17 12:50:53;;;;;;;2.30;1.30;;;;;;;;;;4993635;28;20412;-70
2022/07/17 12:53:19;;;;;;;1.70;1.45;;;;;;;;;;4993365;28;20023;-70
2022/07/17 12:55:45;;;;;;;1.60;1.42;;;;;;;;;;4993349;28;20089;-70
2022/07/17 12:58:11;;;;;;;1.33;1.23;;;;;;;;;;4993291;28;20020;-70
2022/07/17 13:00:37;;;;;;;3.05;1.60;;;;;;;;;;4993267;28;20361;-70
2022/07/17 13:03:04;;;;;;;2.70;1.55;;;;;;;;;;4993128;28;20121;-70
2022/07/17 13:05:30;;;;;;;2.92;1.65;;;;;;;;;;4993290;28;20034;-70
2022/07/17 13:07:56;;;;;;;2.38;1.40;;;;;;;;;;4993564;28;20427;-70
2022/07/17 13:10:22;;;;;;;2.33;1.70;;;;;;;;;;4993954;28;20022;-70
2022/07/17 13:12:48;;;;;;;3.70;1.80;;;;;;;;;;4996755;28;20575;-70
2022/07/17 13:15:14;;;;;;;3.55;1.55;;;;;;;;;;4996737;28;20076;-70
2022/07/17 13:17:40;;;;;;;3.20;1.50;;;;;;;;;;4997006;28;20381;-70
2022/07/17 13:20:07;;;;;;;1.80;1.55;;;;;;;;;;4996731;28;20411;-70
2022/07/17 13:22:33;;;;;;;5.32;1.38;;;;;;;;;;4979176;28;20026;-70
2022/07/17 13:24:59;;;;;;;3.05;1.38;;;;;;;;;;4996884;28;20156;-70
2022/07/17 13:27:25;;;;;;;1.85;1.40;;;;;;;;;;4997076;28;20105;-70
2022/07/17 13:29:51;;;;;;;1.85;1.40;;;;;;;;;;4996409;28;20026;-70
2022/07/17 13:32:17;;;;;;;1.80;1.35;;;;;;;;;;4996987;28;20022;-70
2022/07/17 13:34:43;;;;;;;3.10;1.42;;;;;;;;;;4996444;28;20026;-70
2022/07/17 13:37:09;;;;;;;1.73;1.40;;;;;;;;;;4996415;28;20027;-70
2022/07/17 13:39:35;;;;;;;2.38;1.42;;;;;;;;;;4996353;28;20101;-70
2022/07/17 13:42:01;;;;;;;3.42;1.45;;;;;;;;;;4996852;28;20027;-70
2022/07/17 13:44:27;;;;;;;3.60;1.35;;;;;;;;;;4996528;28;20099;-71
2022/07/17 13:46:53;;;;;;;1.70;1.42;;;;;;;;;;4996764;28;20047;-70
2022/07/17 13:49:20;;;;;;;2.83;1.33;;;;;;;;;;4996193;28;20109;-70
2022/07/17 13:51:46;;;;;;;1.77;1.40;;;;;;;;;;4996108;28;20109;-70
2022/07/17 13:54:12;;;;;;;2.65;1.30;;;;;;;;;;4996037;28;20464;-70
2022/07/17 13:56:38;;;;;;;3.22;1.70;;;;;;;;;;4996039;28;20105;-70
2022/07/17 13:59:04;;;;;;;2.90;1.60;;;;;;;;;;4996011;28;20019;-70
2022/07/17 14:01:30;;;;;;;3.17;1.60;;;;;;;;;;4995819;28;20092;-70
2022/07/17 14:03:56;;;;;;;2.30;1.40;;;;;;;;;;4995740;28;20042;-70
2022/07/17 14:06:23;;;;;;;3.83;1.48;;;;;;;;;;4995812;28;20112;-70
2022/07/17 14:08:49;;;;;;;2.22;1.38;;;;;;;;;;4995807;28;20084;-70
2022/07/17 14:11:15;;;;;;;2.92;1.83;;;;;;;;;;4995700;28;20031;-70
2022/07/17 14:13:41;;;;;;;2.30;1.70;;;;;;;;;;4995767;28;20022;-70
2022/07/17 14:16:07;;;;;;;3.58;1.60;;;;;;;;;;4996179;28;20022;-70
2022/07/17 14:18:33;;;;;;;2.72;1.58;;;;;;;;;;4996187;28;20019;-71
2022/07/17 14:20:59;;;;;;;2.15;1.50;;;;;;;;;;4995568;28;20030;-70
2022/07/17 14:23:26;;;;;;;1.70;1.60;;;;;;;;;;4995321;28;20446;-70
2022/07/17 14:25:52;;;;;;;2.75;1.48;;;;;;;;;;4995491;28;20032;-70
2022/07/17 14:28:18;;;;;;;2.03;1.50;;;;;;;;;;4996448;28;20036;-70
2022/07/17 14:30:44;;;;;;;2.70;1.52;;;;;;;;;;4995341;28;20026;-70
2022/07/17 14:33:10;;;;;;;2.70;1.50;;;;;;;;;;4995610;28;20077;-70
2022/07/17 14:35:36;;;;;;;2.85;1.80;;;;;;;;;;4995232;28;20473;-71
2022/07/17 14:38:05;;;;;;;3.00;1.63;;;;;;;;;;4995265;28;20097;-70
2022/07/17 14:40:32;;;;;;;2.30;1.63;;;;;;;;;;4995224;28;20481;-70